createdAt,value
2023-04-19T00:02:06.624Z,99477.84
2023-04-19T00:04:33.673Z,99477.91
2023-04-19T00:07:00.675Z,99479.72
2023-04-19T00:09:27.426Z,99476.28
2023-04-19T00:11:54.247Z,99468.56
2023-04-19T00:14:21.091Z,99476.28
2023-04-19T00:16:47.913Z,99471.22
2023-04-19T00:19:14.771Z,99483.50
2023-04-19T00:21:41.606Z,99473.75
2023-04-19T00:24:08.547Z,99472.91
2023-04-19T00:26:35.468Z,99472.88
2023-04-19T00:29:02.306Z,99466.75
2023-04-19T00:31:29.255Z,99464.63
2023-04-19T00:33:57.029Z,99461.97
2023-04-19T00:36:23.932Z,99454.41
2023-04-19T00:38:50.712Z,99464.50
2023-04-19T00:41:17.515Z,99462.66
2023-04-19T00:43:44.404Z,99464.38
2023-04-19T00:46:11.505Z,99466.97
2023-04-19T00:48:38.528Z,99459.28
2023-04-19T00:51:05.584Z,99455.81
2023-04-19T00:53:32.700Z,99460.06
2023-04-19T00:56:04.646Z,99453.41
2023-04-19T00:58:32.678Z,99450.81
2023-04-19T01:01:00.354Z,99460.38
2023-04-19T01:03:29.590Z,99461.25
2023-04-19T01:05:57.284Z,99452.59
2023-04-19T01:08:24.524Z,99444.97
2023-04-19T01:10:51.338Z,99448.50
2023-04-19T01:13:18.262Z,99444.09
2023-04-19T01:15:45.123Z,99438.81
2023-04-19T01:18:12.240Z,99441.41
2023-04-19T01:20:39.061Z,99438.81
2023-04-19T01:23:05.852Z,99430.97
2023-04-19T01:25:32.701Z,99439.69
2023-04-19T01:27:59.517Z,99432.09
2023-04-19T01:30:26.340Z,99434.53
2023-04-19T01:32:53.180Z,99431.66
2023-04-19T01:35:21.361Z,99429.78
2023-04-19T01:37:48.236Z,99433.91
2023-04-19T01:40:15.714Z,99423.53
2023-04-19T01:42:42.532Z,99421.16
2023-04-19T01:45:10.179Z,99421.84
2023-04-19T01:47:37.121Z,99430.41
2023-04-19T01:50:04.289Z,99422.00
2023-04-19T01:52:31.077Z,99424.53
2023-04-19T01:54:57.889Z,99413.34
2023-04-19T01:57:24.730Z,99415.88
2023-04-19T01:59:53.410Z,99415.88
2023-04-19T02:02:20.558Z,99412.41
2023-04-19T02:04:47.493Z,99409.84
2023-04-19T02:07:14.346Z,99404.72
2023-04-19T02:09:41.252Z,99414.13
2023-04-19T02:12:08.207Z,99407.47
2023-04-19T02:14:35.770Z,99409.91
2023-04-19T02:17:02.659Z,99396.25
2023-04-19T02:19:29.536Z,99402.13
2023-04-19T02:21:57.800Z,99392.66
2023-04-19T02:24:25.244Z,99399.69
2023-04-19T02:26:52.319Z,99391.81
2023-04-19T02:29:19.281Z,99388.41
2023-04-19T02:31:46.539Z,99390.16
2023-04-19T02:34:13.826Z,99389.31
2023-04-19T02:36:40.889Z,99384.13
2023-04-19T02:39:07.733Z,99391.13
2023-04-19T02:41:34.568Z,99384.25
2023-04-19T02:44:01.399Z,99386.84
2023-04-19T02:46:28.297Z,99382.50
2023-04-19T02:48:55.242Z,99377.38
2023-04-19T02:51:22.090Z,99380.81
2023-04-19T02:53:48.917Z,99376.56
2023-04-19T02:56:16.476Z,99371.44
2023-04-19T02:58:43.332Z,99373.19
2023-04-19T03:01:10.547Z,99372.31
2023-04-19T03:03:37.560Z,99371.44
2023-04-19T03:06:04.707Z,99372.25
2023-04-19T03:08:31.653Z,99365.41
2023-04-19T03:10:58.813Z,99368.47
2023-04-19T03:13:25.738Z,99359.78
2023-04-19T03:15:52.950Z,99364.41
2023-04-19T03:18:19.838Z,99361.72
2023-04-19T03:20:46.677Z,99361.63
2023-04-19T03:23:13.488Z,99361.53
2023-04-19T03:25:40.560Z,99361.69
2023-04-19T03:28:07.366Z,99356.44
2023-04-19T03:30:34.182Z,99365.88
2023-04-19T03:33:01.422Z,99360.69
2023-04-19T03:35:29.355Z,99353.13
2023-04-19T03:37:56.154Z,99361.53
2023-04-19T03:40:22.970Z,99350.31
2023-04-19T03:42:49.795Z,99353.94
2023-04-19T03:45:16.697Z,99356.63
2023-04-19T03:47:43.562Z,99353.94
2023-04-19T03:50:10.697Z,99343.03
2023-04-19T03:52:37.553Z,99347.25
2023-04-19T03:55:05.036Z,99346.31
2023-04-19T03:57:32.788Z,99345.53
2023-04-19T04:00:00.488Z,99339.72
2023-04-19T04:02:27.469Z,99347.38
2023-04-19T04:04:55.533Z,99350.88
2023-04-19T04:07:23.252Z,99342.38
2023-04-19T04:09:50.684Z,99344.28
2023-04-19T04:12:17.492Z,99363.06
2023-04-19T04:14:44.649Z,99353.69
2023-04-19T04:17:11.484Z,99353.25
2023-04-19T04:19:38.316Z,99357.53
2023-04-19T04:22:06.058Z,99358.56
2023-04-19T04:24:41.389Z,99358.56
2023-04-19T04:27:10.171Z,99359.53
2023-04-19T04:29:37.990Z,99360.41
2023-04-19T04:32:10.501Z,99354.59
2023-04-19T04:34:38.582Z,99354.88
2023-04-19T04:37:05.741Z,99354.75
2023-04-19T04:39:35.102Z,99362.78
2023-04-19T04:42:01.914Z,99361.16
2023-04-19T04:44:29.012Z,99356.13
2023-04-19T04:46:55.831Z,99351.84
2023-04-19T04:49:22.691Z,99357.81
2023-04-19T04:51:49.532Z,99365.72
2023-04-19T04:54:16.511Z,99362.34
2023-04-19T04:56:43.471Z,99365.16
2023-04-19T04:59:11.318Z,99365.22
2023-04-19T05:01:38.237Z,99370.41
2023-04-19T05:04:05.564Z,99371.41
2023-04-19T05:06:32.377Z,99373.94
2023-04-19T05:08:59.241Z,99374.91
2023-04-19T05:11:27.467Z,99369.22
2023-04-19T05:13:54.291Z,99365.75
2023-04-19T05:16:21.434Z,99370.00
2023-04-19T05:18:48.312Z,99366.56
2023-04-19T05:21:15.701Z,99381.38
2023-04-19T05:23:42.509Z,99375.31
2023-04-19T05:26:12.676Z,99371.22
2023-04-19T05:28:40.486Z,99372.00
2023-04-19T05:31:08.896Z,99384.13
2023-04-19T05:33:35.734Z,99383.91
2023-04-19T05:36:02.580Z,99383.88
2023-04-19T05:38:29.378Z,99383.81
2023-04-19T05:40:56.320Z,99381.78
2023-04-19T05:43:23.125Z,99357.84
2023-04-19T05:45:50.027Z,99380.66
2023-04-19T05:48:16.880Z,99376.09
2023-04-19T05:50:43.755Z,99379.72
2023-04-19T05:53:10.558Z,99379.72
2023-04-19T05:55:37.368Z,99377.78
2023-04-19T05:58:04.312Z,99384.63
2023-04-19T06:00:31.209Z,99376.84
2023-04-19T06:02:58.160Z,99371.66
2023-04-19T06:05:25.597Z,99382.75
2023-04-19T06:10:29.053Z,99383.59
2023-04-19T06:13:01.168Z,99390.44
2023-04-19T06:15:28.098Z,99391.56
2023-04-19T06:17:54.961Z,99389.88
2023-04-19T06:20:22.109Z,99388.00
2023-04-19T06:22:49.343Z,99384.44
2023-04-19T06:25:16.178Z,99379.19
2023-04-19T06:27:43.063Z,99382.56
2023-04-19T06:30:10.179Z,99397.13
2023-04-19T06:32:37.097Z,99381.00
2023-04-19T06:35:04.540Z,99391.13
2023-04-19T06:37:33.655Z,99383.53
2023-04-19T06:40:00.840Z,99387.69
2023-04-19T06:42:27.649Z,99386.84
2023-04-19T06:44:57.130Z,99381.84
2023-04-19T06:47:24.129Z,99385.94
2023-04-19T06:49:51.073Z,99387.47
2023-04-19T06:52:17.926Z,99389.88
2023-04-19T06:54:51.742Z,99382.88
2023-04-19T06:57:18.771Z,99380.19
2023-04-19T06:59:45.803Z,99387.94
2023-04-19T07:02:12.691Z,99378.41
2023-04-19T07:04:39.731Z,99382.78
2023-04-19T07:07:06.696Z,99371.53
2023-04-19T07:09:33.538Z,99375.63
2023-04-19T07:12:01.654Z,99379.81
2023-04-19T07:14:28.518Z,99372.09
2023-04-19T07:16:55.787Z,99369.59
2023-04-19T07:19:22.829Z,99369.59
2023-04-19T07:21:51.842Z,99367.13
2023-04-19T07:24:18.744Z,99362.59
2023-04-19T07:26:45.610Z,99368.47
2023-04-19T07:29:15.528Z,99370.38
2023-04-19T07:31:42.408Z,99367.56
2023-04-19T07:34:09.262Z,99361.75
2023-04-19T07:36:37.080Z,99347.22
2023-04-19T07:39:04.872Z,99357.25
2023-04-19T07:41:35.991Z,99350.41
2023-04-19T07:44:03.155Z,99356.00
2023-04-19T07:46:30.151Z,99354.38
2023-04-19T07:48:57.017Z,99352.84
2023-04-19T07:51:24.682Z,99353.75
2023-04-19T07:53:51.584Z,99354.53
2023-04-19T07:56:20.014Z,99348.31
2023-04-19T07:58:53.670Z,99347.31
2023-04-19T08:01:27.622Z,99345.13
2023-04-19T08:03:54.623Z,99341.75
2023-04-19T08:06:21.792Z,99349.75
2023-04-19T08:08:50.129Z,99346.09
2023-04-19T08:11:17.050Z,99343.47
2023-04-19T08:13:55.128Z,99335.59
2023-04-19T08:19:00.922Z,99337.28
2023-04-19T08:21:34.636Z,99333.75
2023-04-19T08:24:07.821Z,99338.69
2023-04-19T08:26:34.901Z,99315.56
2023-04-19T08:29:01.829Z,99330.75
2023-04-19T08:31:28.672Z,99336.88
2023-04-19T08:33:55.611Z,99334.34
2023-04-19T08:36:35.499Z,99328.56
2023-04-19T08:39:12.568Z,99326.81
2023-04-19T08:41:48.174Z,99322.41
2023-04-19T08:44:32.533Z,99335.78
2023-04-19T08:47:03.493Z,99332.22
2023-04-19T08:49:31.693Z,99326.81
2023-04-19T08:51:58.903Z,99327.75
2023-04-19T08:54:26.417Z,99325.22
2023-04-19T08:56:54.499Z,99326.00
2023-04-19T08:59:21.478Z,99320.75
2023-04-19T09:01:48.492Z,99323.19
2023-04-19T09:06:45.385Z,99316.53
2023-04-19T09:11:51.694Z,99311.25
2023-04-19T09:14:21.096Z,99304.88
2023-04-19T09:16:48.385Z,99314.97
2023-04-19T09:19:23.973Z,99307.53
2023-04-19T09:21:53.559Z,99316.88
2023-04-19T09:25:04.497Z,99310.56
2023-04-19T09:27:34.708Z,99305.38
2023-04-19T09:30:03.809Z,99301.78
2023-04-19T09:32:48.647Z,99294.22
2023-04-19T09:35:16.064Z,99276.13
2023-04-19T09:40:23.562Z,99286.50
2023-04-19T09:45:29.717Z,99271.53
2023-04-19T09:48:08.412Z,99272.56
2023-04-19T09:50:46.642Z,99255.44
2023-04-19T09:53:22.146Z,99257.06
2023-04-19T09:56:00.545Z,99259.00
2023-04-19T09:58:37.590Z,99258.31
2023-04-19T10:01:15.658Z,99229.16
2023-04-19T10:03:46.467Z,99255.47
2023-04-19T10:08:51.055Z,99253.97
2023-04-19T10:11:21.988Z,99258.94
2023-04-19T10:13:50.592Z,99256.72
2023-04-19T10:16:19.931Z,99242.13
2023-04-19T10:18:50.099Z,99249.63
2023-04-19T10:21:17.660Z,99250.34
2023-04-19T10:23:44.759Z,99248.91
2023-04-19T10:26:11.608Z,99245.31
2023-04-19T10:28:38.456Z,99243.66
2023-04-19T10:31:05.871Z,99236.69
2023-04-19T10:33:37.827Z,99234.56
2023-04-19T10:36:09.048Z,99227.69
2023-04-19T10:38:49.426Z,99238.06
2023-04-19T10:41:20.135Z,99227.69
2023-04-19T10:43:48.437Z,99233.66
2023-04-19T10:46:36.336Z,99230.38
2023-04-19T10:49:05.747Z,99222.50
2023-04-19T10:51:43.287Z,99221.34
2023-04-19T10:54:32.471Z,99219.44
2023-04-19T10:57:02.667Z,99229.47
2023-04-19T10:59:31.907Z,99212.81
2023-04-19T11:02:01.332Z,99206.94
2023-04-19T11:04:31.234Z,99209.06
2023-04-19T11:07:07.309Z,99202.06
2023-04-19T11:09:36.321Z,99199.41
2023-04-19T11:12:12.641Z,99190.41
2023-04-19T11:14:59.696Z,99194.38
2023-04-19T11:17:32.086Z,99193.00
2023-04-19T11:20:07.061Z,99181.06
2023-04-19T11:22:44.921Z,99184.00
2023-04-19T11:25:14.064Z,99182.63
2023-04-19T11:27:43.041Z,99193.88
2023-04-19T11:30:16.839Z,99186.16
2023-04-19T11:35:32.817Z,99177.75
2023-04-19T11:38:00.114Z,99184.16
2023-04-19T11:40:27.398Z,99183.03
2023-04-19T11:43:02.492Z,99176.97
2023-04-19T11:45:33.117Z,99165.38
2023-04-19T11:48:05.255Z,99179.22
2023-04-19T11:50:42.669Z,99175.00
2023-04-19T11:53:20.871Z,99166.59
2023-04-19T11:55:58.631Z,99176.00
2023-04-19T11:58:39.767Z,99165.38
2023-04-19T12:01:28.930Z,99178.44
2023-04-19T12:03:57.639Z,99173.94
2023-04-19T12:06:28.192Z,99175.53
2023-04-19T12:08:56.775Z,99179.03
2023-04-19T12:11:46.357Z,99181.81
2023-04-19T12:14:15.917Z,99174.31
2023-04-19T12:16:44.860Z,99172.31
2023-04-19T12:19:18.439Z,99182.19
2023-04-19T12:21:47.005Z,99179.00
2023-04-19T12:24:16.703Z,99180.81
2023-04-19T12:26:56.764Z,99176.66
2023-04-19T12:29:23.617Z,99175.97
2023-04-19T12:31:51.113Z,99174.13
2023-04-19T12:34:17.990Z,99183.00
2023-04-19T12:36:44.868Z,99173.75
2023-04-19T12:39:11.976Z,99160.09
2023-04-19T12:41:38.810Z,99172.00
2023-04-19T12:44:05.776Z,99171.91
2023-04-19T12:46:32.695Z,99163.97
2023-04-19T12:48:59.617Z,99165.97
2023-04-19T12:51:27.976Z,99166.22
2023-04-19T12:53:54.835Z,99167.19
2023-04-19T12:56:21.737Z,99168.28
2023-04-19T12:58:48.624Z,99169.06
2023-04-19T13:01:15.575Z,99170.19
2023-04-19T13:03:42.652Z,99168.44
2023-04-19T13:06:11.082Z,99169.50
2023-04-19T13:08:44.584Z,99169.06
2023-04-19T13:11:14.022Z,99158.09
2023-04-19T13:13:40.911Z,99164.78
2023-04-19T13:16:08.255Z,99163.03
2023-04-19T13:18:35.508Z,99156.22
2023-04-19T13:21:02.435Z,99153.03
2023-04-19T13:23:29.494Z,99152.34
2023-04-19T13:25:56.307Z,99153.03
2023-04-19T13:28:23.156Z,99148.69
2023-04-19T13:30:50.069Z,99151.34
2023-04-19T13:33:16.980Z,99151.19
2023-04-19T13:35:44.996Z,99158.00
2023-04-19T13:38:11.898Z,99147.53
2023-04-19T13:40:38.767Z,99131.97
2023-04-19T13:43:05.613Z,99138.81
2023-04-19T13:45:32.434Z,99120.91
2023-04-19T13:47:59.286Z,99129.28
2023-04-19T13:50:26.125Z,99123.25
2023-04-19T13:52:52.949Z,99119.88
2023-04-19T13:55:19.787Z,99120.03
2023-04-19T13:57:46.780Z,99108.16
2023-04-19T14:00:14.277Z,99114.69
2023-04-19T14:02:41.269Z,99115.19
2023-04-19T14:05:09.140Z,99119.69
2023-04-19T14:07:37.581Z,99119.38
2023-04-19T14:10:04.773Z,99124.47
2023-04-19T14:12:31.675Z,99116.16
2023-04-19T14:14:58.933Z,99113.56
2023-04-19T14:17:26.280Z,99110.53
2023-04-19T14:19:53.349Z,99108.38
2023-04-19T14:22:20.270Z,99100.25
2023-04-19T14:24:47.287Z,99093.34
2023-04-19T14:27:14.142Z,99099.22
2023-04-19T14:29:40.980Z,99095.22
2023-04-19T14:32:24.304Z,99094.13
2023-04-19T14:34:53.417Z,99091.59
2023-04-19T14:37:23.488Z,99095.66
2023-04-19T14:39:50.533Z,99085.44
2023-04-19T14:42:18.050Z,99087.47
2023-04-19T14:44:46.425Z,99079.78
2023-04-19T14:47:14.457Z,99075.44
2023-04-19T14:49:41.917Z,99087.88
2023-04-19T14:52:08.982Z,99073.38
2023-04-19T14:54:35.899Z,99070.53
2023-04-19T14:57:03.087Z,99071.03
2023-04-19T14:59:30.105Z,99074.84
2023-04-19T15:01:57.112Z,99074.44
2023-04-19T15:04:24.152Z,99072.59
2023-04-19T15:06:51.124Z,99077.78
2023-04-19T15:09:18.342Z,99075.88
2023-04-19T15:11:45.746Z,99072.38
2023-04-19T15:14:12.663Z,99075.75
2023-04-19T15:16:39.548Z,99073.09
2023-04-19T15:19:07.528Z,99071.16
2023-04-19T15:21:34.777Z,99072.47
2023-04-19T15:24:01.732Z,99066.53
2023-04-19T15:26:28.588Z,99060.50
2023-04-19T15:28:56.390Z,99062.09
2023-04-19T15:31:25.010Z,99056.59
2023-04-19T15:33:52.492Z,99059.78
2023-04-19T15:36:19.338Z,99065.16
2023-04-19T15:38:46.166Z,99057.66
2023-04-19T15:41:13.092Z,99050.44
2023-04-19T15:43:39.960Z,99053.41
2023-04-19T15:46:06.776Z,99053.06
2023-04-19T15:48:33.784Z,99052.09
2023-04-19T15:51:01.846Z,99057.38
2023-04-19T15:53:28.851Z,99049.41
2023-04-19T15:55:56.661Z,99037.47
2023-04-19T15:58:24.148Z,99046.66
2023-04-19T16:00:51.275Z,99044.78
2023-04-19T16:03:18.262Z,99045.84
2023-04-19T16:05:45.150Z,99039.66
2023-04-19T16:08:17.174Z,99040.06
2023-04-19T16:10:48.639Z,99043.16
2023-04-19T16:13:16.217Z,99037.38
2023-04-19T16:15:44.737Z,99039.59
2023-04-19T16:18:13.134Z,99044.56
2023-04-19T16:20:40.706Z,99045.78
2023-04-19T16:23:08.093Z,99039.75
2023-04-19T16:25:35.008Z,99033.88
2023-04-19T16:28:02.127Z,99035.53
2023-04-19T16:30:28.991Z,99043.94
2023-04-19T16:32:57.094Z,99046.22
2023-04-19T16:35:25.203Z,99039.91
2023-04-19T16:37:55.144Z,99043.03
2023-04-19T16:40:23.665Z,99029.59
2023-04-19T16:42:50.544Z,99032.66
2023-04-19T16:45:19.889Z,99032.00
2023-04-19T16:47:48.080Z,99029.06
2023-04-19T16:50:15.300Z,99026.06
2023-04-19T16:52:42.174Z,99022.38
2023-04-19T16:55:09.706Z,99027.72
2023-04-19T16:57:36.829Z,99025.97
2023-04-19T17:00:06.000Z,99023.63
2023-04-19T17:02:33.314Z,99019.28
2023-04-19T17:05:00.479Z,99024.88
2023-04-19T17:07:27.521Z,99019.06
2023-04-19T17:09:55.291Z,99022.63
2023-04-19T17:12:22.296Z,99024.03
2023-04-19T17:14:49.132Z,99025.81
2023-04-19T17:17:18.100Z,99028.84
2023-04-19T17:19:44.958Z,99029.00
2023-04-19T17:22:11.955Z,99028.66
2023-04-19T17:24:39.222Z,99028.25
2023-04-19T17:27:06.380Z,99027.22
2023-04-19T17:29:33.202Z,99023.41
2023-04-19T17:32:00.946Z,99026.63
2023-04-19T17:34:27.854Z,99021.50
2023-04-19T17:36:54.736Z,99023.81
2023-04-19T17:39:21.547Z,99029.22
2023-04-19T17:41:48.370Z,99032.72
2023-04-19T17:44:15.213Z,99032.50
2023-04-19T17:46:42.208Z,99027.09
2023-04-19T17:49:09.357Z,99030.41
2023-04-19T17:51:36.222Z,99026.94
2023-04-19T17:54:03.180Z,99029.13
2023-04-19T17:56:31.228Z,99031.25
2023-04-19T17:59:00.656Z,99023.31
2023-04-19T18:01:27.494Z,99013.88
2023-04-19T18:03:54.515Z,99025.00
2023-04-19T18:06:21.991Z,99027.59
2023-04-19T18:08:48.799Z,99024.25
2023-04-19T18:11:18.049Z,99027.69
2023-04-19T18:13:45.476Z,99032.72
2023-04-19T18:16:13.488Z,99032.63
2023-04-19T18:18:40.372Z,99037.81
2023-04-19T18:21:08.279Z,99036.22
2023-04-19T18:23:35.260Z,99026.84
2023-04-19T18:26:03.939Z,99042.41
2023-04-19T18:28:30.848Z,99039.81
2023-04-19T18:30:57.836Z,99038.88
2023-04-19T18:33:24.810Z,99039.97
2023-04-19T18:35:53.869Z,99043.38
2023-04-19T18:38:20.992Z,99046.06
2023-04-19T18:40:48.119Z,99048.72
2023-04-19T18:43:15.672Z,99047.16
2023-04-19T18:45:42.714Z,99050.03
2023-04-19T18:48:09.711Z,99046.91
2023-04-19T18:50:38.097Z,99047.00
2023-04-19T18:53:04.913Z,99048.13
2023-04-19T18:55:31.823Z,99055.84
2023-04-19T18:58:01.191Z,99052.53
2023-04-19T19:00:28.429Z,99063.00
2023-04-19T19:02:57.332Z,99067.47
2023-04-19T19:05:24.539Z,99066.06
2023-04-19T19:07:51.605Z,99060.06
2023-04-19T19:10:22.305Z,99053.50
2023-04-19T19:12:53.396Z,99067.97
2023-04-19T19:15:20.234Z,99067.97
2023-04-19T19:17:49.713Z,99064.16
2023-04-19T19:20:17.719Z,99069.34
2023-04-19T19:22:45.493Z,99072.84
2023-04-19T19:25:13.097Z,99064.47
2023-04-19T19:27:40.084Z,99073.00
2023-04-19T19:30:08.074Z,99072.25
2023-04-19T19:32:35.353Z,99075.66
2023-04-19T19:35:06.368Z,99069.91
2023-04-19T19:37:36.997Z,99078.47
2023-04-19T19:40:10.752Z,99078.47
2023-04-19T19:42:40.787Z,99077.63
2023-04-19T19:45:09.097Z,99078.53
2023-04-19T19:47:42.810Z,99062.38
2023-04-19T19:51:00.130Z,99066.56
2023-04-19T19:53:01.471Z,99072.75
2023-04-19T19:55:28.899Z,99075.56
2023-04-19T20:02:56.835Z,99076.53
2023-04-19T20:05:24.329Z,99076.69
2023-04-19T20:10:21.193Z,99075.91
2023-04-19T20:12:48.034Z,99070.81
2023-04-19T20:15:14.865Z,99073.47
2023-04-19T20:17:41.807Z,99071.84
2023-04-19T20:20:11.099Z,99078.09
2023-04-19T20:22:38.425Z,99075.69
2023-04-19T20:25:05.874Z,99075.00
2023-04-19T20:27:33.455Z,99076.81
2023-04-19T20:30:00.909Z,99079.72
2023-04-19T20:32:27.895Z,99067.88
2023-04-19T20:34:54.777Z,99070.81
2023-04-19T20:37:22.502Z,99080.72
2023-04-19T20:39:49.340Z,99069.38
2023-04-19T20:42:16.759Z,99077.66
2023-04-19T20:44:43.639Z,99077.16
2023-04-19T20:47:12.803Z,99076.66
2023-04-19T20:49:40.145Z,99085.59
2023-04-19T20:52:07.016Z,99083.25
2023-04-19T20:54:36.480Z,99071.97
2023-04-19T20:57:04.550Z,99053.72
2023-04-19T20:59:31.578Z,99079.03
2023-04-19T21:01:59.723Z,99077.16
2023-04-19T21:04:26.925Z,99083.25
2023-04-19T21:06:53.845Z,99073.09
2023-04-19T21:09:20.945Z,99072.50
2023-04-19T21:11:47.740Z,99063.22
2023-04-19T21:14:14.785Z,99076.19
2023-04-19T21:16:41.651Z,99070.44
2023-04-19T21:19:08.474Z,99071.16
2023-04-19T21:21:35.399Z,99070.44
2023-04-19T21:24:02.204Z,99070.78
2023-04-19T21:26:29.019Z,99073.47
2023-04-19T21:28:55.869Z,99071.16
2023-04-19T21:31:22.726Z,99066.13
2023-04-19T21:33:49.521Z,99070.63
2023-04-19T21:36:16.344Z,99067.50
2023-04-19T21:38:43.351Z,99071.00
2023-04-19T21:41:10.802Z,99063.25
2023-04-19T21:43:37.680Z,99063.44
2023-04-19T21:46:05.251Z,99062.72
2023-04-19T21:48:32.494Z,99062.81
2023-04-19T21:51:01.220Z,99058.84
2023-04-19T21:53:28.087Z,99013.31
2023-04-19T21:55:54.967Z,99056.34
2023-04-19T21:58:22.009Z,99057.47
2023-04-19T22:00:49.129Z,99069.81
2023-04-19T22:03:16.152Z,99057.94
2023-04-19T22:05:45.991Z,99050.44
2023-04-19T22:08:12.975Z,99056.75
2023-04-19T22:10:41.005Z,99047.91
2023-04-19T22:13:08.703Z,99053.66
2023-04-19T22:15:36.384Z,99050.94
2023-04-19T22:18:04.661Z,99038.19
2023-04-19T22:20:33.566Z,99045.72
2023-04-19T22:23:00.442Z,99050.88
2023-04-19T22:25:27.423Z,99044.06
2023-04-19T22:27:54.329Z,99040.69
2023-04-19T22:30:21.192Z,99042.47
2023-04-19T22:32:48.615Z,99035.72
2023-04-19T22:35:15.752Z,99026.41
2023-04-19T22:37:42.564Z,99035.19
2023-04-19T22:40:10.174Z,99034.44
2023-04-19T22:42:37.188Z,99027.66
2023-04-19T22:45:04.583Z,99029.34
2023-04-19T22:47:32.984Z,99028.69
2023-04-19T22:49:59.904Z,99023.53
2023-04-19T22:52:27.697Z,99019.31
2023-04-19T22:54:54.577Z,99022.06
2023-04-19T22:57:21.418Z,99023.22
2023-04-19T22:59:48.842Z,99022.19
2023-04-19T23:02:15.779Z,99013.47
2023-04-19T23:04:44.499Z,99003.97
2023-04-19T23:07:11.786Z,99006.47
2023-04-19T23:09:39.406Z,99008.31
2023-04-19T23:12:08.106Z,98997.34
2023-04-19T23:14:34.936Z,99001.75
2023-04-19T23:17:02.838Z,99003.34
2023-04-19T23:19:30.482Z,99002.69
2023-04-19T23:21:57.459Z,99001.75
2023-04-19T23:24:24.486Z,99000.16
2023-04-19T23:26:51.404Z,98977.38
2023-04-19T23:29:18.538Z,98979.75
2023-04-19T23:31:45.815Z,98982.31
2023-04-19T23:34:13.961Z,98982.31
2023-04-19T23:36:40.916Z,98978.19
2023-04-19T23:39:07.816Z,98975.72
2023-04-19T23:41:34.635Z,98971.50
2023-04-19T23:44:01.487Z,98965.72
2023-04-19T23:46:28.383Z,98970.94
2023-04-19T23:48:55.258Z,98962.59
2023-04-19T23:51:22.070Z,98961.22
2023-04-19T23:53:48.886Z,98956.91
2023-04-19T23:56:15.685Z,98955.34
2023-04-19T23:58:42.607Z,98943.34
